sensor_id;sensor_type;location;lat;lon;timestamp;temperature;humidity
19037;DHT22;9651;49.138;8.900;2024-02-21T00:03:38;7.80;99.90
19037;DHT22;9651;49.138;8.900;2024-02-21T00:07:40;7.80;99.90
19037;DHT22;9651;49.138;8.900;2024-02-21T00:11:41;7.80;99.90
19037;DHT22;9651;49.138;8.900;2024-02-21T00:15:43;7.90;99.90
19037;DHT22;9651;49.138;8.900;2024-02-21T00:19:46;7.90;99.90
19037;DHT22;9651;49.138;8.900;2024-02-21T00:23:48;7.90;99.90
19037;DHT22;9651;49.138;8.900;2024-02-21T00:27:51;7.90;99.90
19037;DHT22;9651;49.138;8.900;2024-02-21T00:31:54;7.90;99.90
19037;DHT22;9651;49.138;8.900;2024-02-21T00:35:57;7.90;99.90
19037;DHT22;9651;49.138;8.900;2024-02-21T00:39:59;7.90;99.90
19037;DHT22;9651;49.138;8.900;2024-02-21T00:44:01;7.90;99.90
19037;DHT22;9651;49.138;8.900;2024-02-21T00:48:04;7.90;99.90
19037;DHT22;9651;49.138;8.900;2024-02-21T00:52:07;7.90;99.90
19037;DHT22;9651;49.138;8.900;2024-02-21T00:56:09;7.90;99.90
19037;DHT22;9651;49.138;8.900;2024-02-21T01:00:12;7.90;99.90
19037;DHT22;9651;49.138;8.900;2024-02-21T01:04:14;7.90;99.90
19037;DHT22;9651;49.138;8.900;2024-02-21T01:08:18;7.90;99.90
19037;DHT22;9651;49.138;8.900;2024-02-21T01:12:19;7.90;99.90
19037;DHT22;9651;49.138;8.900;2024-02-21T01:16:21;7.90;99.90
19037;DHT22;9651;49.138;8.900;2024-02-21T01:20:23;8.00;99.90
19037;DHT22;9651;49.138;8.900;2024-02-21T01:24:26;8.00;99.90
19037;DHT22;9651;49.138;8.900;2024-02-21T01:28:28;8.00;99.90
19037;DHT22;9651;49.138;8.900;2024-02-21T01:32:31;8.00;99.90
19037;DHT22;9651;49.138;8.900;2024-02-21T01:36:33;8.00;99.90
19037;DHT22;9651;49.138;8.900;2024-02-21T01:40:36;8.00;99.90
19037;DHT22;9651;49.138;8.900;2024-02-21T01:44:38;8.00;99.90
19037;DHT22;9651;49.138;8.900;2024-02-21T01:48:40;8.00;99.90
19037;DHT22;9651;49.138;8.900;2024-02-21T01:52:43;8.00;99.90
19037;DHT22;9651;49.138;8.900;2024-02-21T01:56:48;8.00;99.90
19037;DHT22;9651;49.138;8.900;2024-02-21T02:00:51;8.00;99.90
19037;DHT22;9651;49.138;8.900;2024-02-21T02:04:53;8.00;99.90
19037;DHT22;9651;49.138;8.900;2024-02-21T02:08:56;7.90;99.90
19037;DHT22;9651;49.138;8.900;2024-02-21T02:13:00;7.90;99.90
19037;DHT22;9651;49.138;8.900;2024-02-21T02:17:02;8.00;99.90
19037;DHT22;9651;49.138;8.900;2024-02-21T02:21:05;8.00;99.90
19037;DHT22;9651;49.138;8.900;2024-02-21T02:25:14;7.90;99.90
19037;DHT22;9651;49.138;8.900;2024-02-21T02:29:15;7.90;99.90
19037;DHT22;9651;49.138;8.900;2024-02-21T02:33:18;7.90;99.90
19037;DHT22;9651;49.138;8.900;2024-02-21T02:37:20;7.90;99.90
19037;DHT22;9651;49.138;8.900;2024-02-21T02:41:23;7.90;99.90
19037;DHT22;9651;49.138;8.900;2024-02-21T02:45:25;7.80;99.90
19037;DHT22;9651;49.138;8.900;2024-02-21T02:49:27;7.80;99.90
19037;DHT22;9651;49.138;8.900;2024-02-21T02:53:29;7.80;99.90
19037;DHT22;9651;49.138;8.900;2024-02-21T02:57:32;7.80;99.90
19037;DHT22;9651;49.138;8.900;2024-02-21T03:01:34;7.80;99.90
19037;DHT22;9651;49.138;8.900;2024-02-21T03:05:36;7.70;99.90
19037;DHT22;9651;49.138;8.900;2024-02-21T03:09:38;7.70;99.90
19037;DHT22;9651;49.138;8.900;2024-02-21T03:13:42;7.70;99.90
19037;DHT22;9651;49.138;8.900;2024-02-21T03:17:44;7.70;99.90
19037;DHT22;9651;49.138;8.900;2024-02-21T03:21:46;7.60;99.90
19037;DHT22;9651;49.138;8.900;2024-02-21T03:25:48;7.60;99.90
19037;DHT22;9651;49.138;8.900;2024-02-21T03:29:51;7.60;99.90
19037;DHT22;9651;49.138;8.900;2024-02-21T03:33:53;7.60;99.90
19037;DHT22;9651;49.138;8.900;2024-02-21T03:37:54;7.50;99.90
19037;DHT22;9651;49.138;8.900;2024-02-21T03:41:56;7.50;99.90
19037;DHT22;9651;49.138;8.900;2024-02-21T03:45:59;7.50;99.90
19037;DHT22;9651;49.138;8.900;2024-02-21T03:50:02;7.50;99.90
19037;DHT22;9651;49.138;8.900;2024-02-21T03:54:04;7.40;99.90
19037;DHT22;9651;49.138;8.900;2024-02-21T03:58:06;7.40;99.90
19037;DHT22;9651;49.138;8.900;2024-02-21T04:02:09;7.30;99.90
19037;DHT22;9651;49.138;8.900;2024-02-21T04:06:11;7.30;99.90
19037;DHT22;9651;49.138;8.900;2024-02-21T04:10:13;7.30;99.90
19037;DHT22;9651;49.138;8.900;2024-02-21T04:14:14;7.30;99.90
19037;DHT22;9651;49.138;8.900;2024-02-21T04:18:18;7.30;99.90
19037;DHT22;9651;49.138;8.900;2024-02-21T04:22:19;7.20;99.90
19037;DHT22;9651;49.138;8.900;2024-02-21T04:26:21;7.20;99.90
19037;DHT22;9651;49.138;8.900;2024-02-21T04:30:23;7.10;99.90
19037;DHT22;9651;49.138;8.900;2024-02-21T04:34:26;7.10;99.90
19037;DHT22;9651;49.138;8.900;2024-02-21T04:38:28;7.00;99.90
19037;DHT22;9651;49.138;8.900;2024-02-21T04:42:30;7.00;99.90
19037;DHT22;9651;49.138;8.900;2024-02-21T04:46:32;6.90;99.90
19037;DHT22;9651;49.138;8.900;2024-02-21T04:50:35;6.90;99.90
19037;DHT22;9651;49.138;8.900;2024-02-21T04:54:37;6.90;99.90
19037;DHT22;9651;49.138;8.900;2024-02-21T04:58:40;6.80;99.90
19037;DHT22;9651;49.138;8.900;2024-02-21T05:02:42;6.70;99.90
19037;DHT22;9651;49.138;8.900;2024-02-21T05:06:45;6.70;99.90
19037;DHT22;9651;49.138;8.900;2024-02-21T05:10:47;6.60;99.90
19037;DHT22;9651;49.138;8.900;2024-02-21T05:14:48;6.60;99.90
19037;DHT22;9651;49.138;8.900;2024-02-21T05:18:50;6.50;99.90
19037;DHT22;9651;49.138;8.900;2024-02-21T05:22:54;6.50;99.90
19037;DHT22;9651;49.138;8.900;2024-02-21T05:26:56;6.40;99.90
19037;DHT22;9651;49.138;8.900;2024-02-21T05:30:58;6.40;99.90
19037;DHT22;9651;49.138;8.900;2024-02-21T05:35:00;6.40;99.90
19037;DHT22;9651;49.138;8.900;2024-02-21T05:39:03;6.40;99.90
19037;DHT22;9651;49.138;8.900;2024-02-21T05:43:05;6.30;99.90
19037;DHT22;9651;49.138;8.900;2024-02-21T05:47:06;6.30;99.90
19037;DHT22;9651;49.138;8.900;2024-02-21T05:51:10;6.20;99.90
19037;DHT22;9651;49.138;8.900;2024-02-21T05:55:13;6.10;99.90
19037;DHT22;9651;49.138;8.900;2024-02-21T05:59:15;6.10;99.90
19037;DHT22;9651;49.138;8.900;2024-02-21T06:03:17;6.10;99.90
19037;DHT22;9651;49.138;8.900;2024-02-21T06:07:19;6.00;99.90
19037;DHT22;9651;49.138;8.900;2024-02-21T06:11:22;6.00;99.90
19037;DHT22;9651;49.138;8.900;2024-02-21T06:15:24;5.90;99.90
19037;DHT22;9651;49.138;8.900;2024-02-21T06:19:26;5.90;99.90
19037;DHT22;9651;49.138;8.900;2024-02-21T06:23:28;5.80;99.90
19037;DHT22;9651;49.138;8.900;2024-02-21T06:27:31;5.80;99.90
19037;DHT22;9651;49.138;8.900;2024-02-21T06:31:34;5.80;99.90
19037;DHT22;9651;49.138;8.900;2024-02-21T06:35:36;5.80;99.90
19037;DHT22;9651;49.138;8.900;2024-02-21T06:39:41;5.70;99.90
19037;DHT22;9651;49.138;8.900;2024-02-21T06:43:44;5.70;99.90
19037;DHT22;9651;49.138;8.900;2024-02-21T06:47:46;5.70;99.90
19037;DHT22;9651;49.138;8.900;2024-02-21T06:51:48;5.70;99.90
19037;DHT22;9651;49.138;8.900;2024-02-21T06:55:50;5.70;99.90
19037;DHT22;9651;49.138;8.900;2024-02-21T06:59:53;5.70;99.90
19037;DHT22;9651;49.138;8.900;2024-02-21T07:03:55;5.70;99.90
19037;DHT22;9651;49.138;8.900;2024-02-21T07:07:57;5.70;99.90
19037;DHT22;9651;49.138;8.900;2024-02-21T07:11:59;5.80;99.90
19037;DHT22;9651;49.138;8.900;2024-02-21T07:16:02;6.00;99.90
19037;DHT22;9651;49.138;8.900;2024-02-21T07:20:05;6.20;99.90
19037;DHT22;9651;49.138;8.900;2024-02-21T07:24:07;6.40;99.90
19037;DHT22;9651;49.138;8.900;2024-02-21T07:28:09;6.80;99.90
19037;DHT22;9651;49.138;8.900;2024-02-21T07:32:13;7.20;99.90
19037;DHT22;9651;49.138;8.900;2024-02-21T07:36:15;7.50;99.90
19037;DHT22;9651;49.138;8.900;2024-02-21T07:40:17;7.70;99.90
19037;DHT22;9651;49.138;8.900;2024-02-21T07:44:19;7.90;99.90
19037;DHT22;9651;49.138;8.900;2024-02-21T07:48:22;8.10;99.90
19037;DHT22;9651;49.138;8.900;2024-02-21T07:52:27;8.30;99.90
19037;DHT22;9651;49.138;8.900;2024-02-21T07:56:29;8.50;99.90
19037;DHT22;9651;49.138;8.900;2024-02-21T08:00:30;8.70;99.90
19037;DHT22;9651;49.138;8.900;2024-02-21T08:04:34;8.90;99.90
19037;DHT22;9651;49.138;8.900;2024-02-21T08:08:36;9.20;99.90
19037;DHT22;9651;49.138;8.900;2024-02-21T08:12:38;9.30;99.90
19037;DHT22;9651;49.138;8.900;2024-02-21T08:16:40;9.60;99.90
19037;DHT22;9651;49.138;8.900;2024-02-21T08:20:43;9.60;99.90
19037;DHT22;9651;49.138;8.900;2024-02-21T08:24:45;9.50;99.90
19037;DHT22;9651;49.138;8.900;2024-02-21T08:28:47;9.70;99.90
19037;DHT22;9651;49.138;8.900;2024-02-21T08:32:50;9.80;99.90
19037;DHT22;9651;49.138;8.900;2024-02-21T08:36:53;9.90;99.90
19037;DHT22;9651;49.138;8.900;2024-02-21T08:40:55;9.80;99.90
19037;DHT22;9651;49.138;8.900;2024-02-21T08:44:57;10.00;99.90
19037;DHT22;9651;49.138;8.900;2024-02-21T08:48:59;10.00;99.90
19037;DHT22;9651;49.138;8.900;2024-02-21T08:53:02;10.00;99.90
19037;DHT22;9651;49.138;8.900;2024-02-21T08:57:04;10.20;99.90
19037;DHT22;9651;49.138;8.900;2024-02-21T09:01:06;10.30;99.90
19037;DHT22;9651;49.138;8.900;2024-02-21T09:05:10;10.50;99.90
19037;DHT22;9651;49.138;8.900;2024-02-21T09:09:13;10.40;99.90
19037;DHT22;9651;49.138;8.900;2024-02-21T09:13:15;10.50;99.90
19037;DHT22;9651;49.138;8.900;2024-02-21T09:17:17;10.60;99.90
19037;DHT22;9651;49.138;8.900;2024-02-21T09:21:21;10.70;99.90
19037;DHT22;9651;49.138;8.900;2024-02-21T09:25:24;10.90;99.90
19037;DHT22;9651;49.138;8.900;2024-02-21T09:29:27;11.20;99.90
19037;DHT22;9651;49.138;8.900;2024-02-21T09:33:29;11.40;99.90
19037;DHT22;9651;49.138;8.900;2024-02-21T09:37:31;11.80;99.90
19037;DHT22;9651;49.138;8.900;2024-02-21T09:41:36;12.20;99.90
19037;DHT22;9651;49.138;8.900;2024-02-21T09:45:41;12.50;99.90
19037;DHT22;9651;49.138;8.900;2024-02-21T09:49:47;12.50;99.90
19037;DHT22;9651;49.138;8.900;2024-02-21T09:53:51;12.50;99.90
19037;DHT22;9651;49.138;8.900;2024-02-21T09:57:56;12.90;99.90
19037;DHT22;9651;49.138;8.900;2024-02-21T10:02:00;13.00;99.90
19037;DHT22;9651;49.138;8.900;2024-02-21T10:06:02;13.30;99.90
19037;DHT22;9651;49.138;8.900;2024-02-21T10:10:05;13.70;99.90
19037;DHT22;9651;49.138;8.900;2024-02-21T10:14:08;13.60;99.90
19037;DHT22;9651;49.138;8.900;2024-02-21T10:18:10;13.20;99.90
19037;DHT22;9651;49.138;8.900;2024-02-21T10:22:12;13.60;99.90
19037;DHT22;9651;49.138;8.900;2024-02-21T10:26:14;13.80;99.90
19037;DHT22;9651;49.138;8.900;2024-02-21T10:30:18;13.80;99.90
19037;DHT22;9651;49.138;8.900;2024-02-21T10:34:20;14.20;99.90
19037;DHT22;9651;49.138;8.900;2024-02-21T10:38:22;14.80;99.90
19037;DHT22;9651;49.138;8.900;2024-02-21T10:42:29;14.80;99.90
19037;DHT22;9651;49.138;8.900;2024-02-21T10:46:35;14.80;99.90
19037;DHT22;9651;49.138;8.900;2024-02-21T10:50:57;14.70;99.90
19037;DHT22;9651;49.138;8.900;2024-02-21T10:55:03;14.30;99.90
19037;DHT22;9651;49.138;8.900;2024-02-21T10:59:06;14.70;99.90
19037;DHT22;9651;49.138;8.900;2024-02-21T11:03:10;15.20;99.90
19037;DHT22;9651;49.138;8.900;2024-02-21T11:07:13;15.50;99.90
19037;DHT22;9651;49.138;8.900;2024-02-21T11:11:16;15.20;99.90
19037;DHT22;9651;49.138;8.900;2024-02-21T11:15:25;15.10;99.90
19037;DHT22;9651;49.138;8.900;2024-02-21T11:19:29;15.60;99.90
19037;DHT22;9651;49.138;8.900;2024-02-21T11:23:32;15.70;99.90
19037;DHT22;9651;49.138;8.900;2024-02-21T11:27:34;15.80;99.90
19037;DHT22;9651;49.138;8.900;2024-02-21T11:31:39;15.50;99.90
19037;DHT22;9651;49.138;8.900;2024-02-21T11:35:43;15.20;99.90
19037;DHT22;9651;49.138;8.900;2024-02-21T11:39:46;15.20;99.90
19037;DHT22;9651;49.138;8.900;2024-02-21T11:43:49;15.50;99.90
19037;DHT22;9651;49.138;8.900;2024-02-21T11:47:52;15.60;99.90
19037;DHT22;9651;49.138;8.900;2024-02-21T11:52:01;15.50;99.90
19037;DHT22;9651;49.138;8.900;2024-02-21T11:56:05;15.30;99.90
19037;DHT22;9651;49.138;8.900;2024-02-21T12:00:14;15.30;99.90
19037;DHT22;9651;49.138;8.900;2024-02-21T12:04:17;15.40;99.90
19037;DHT22;9651;49.138;8.900;2024-02-21T12:08:21;15.30;99.90
19037;DHT22;9651;49.138;8.900;2024-02-21T12:12:23;15.50;99.90
19037;DHT22;9651;49.138;8.900;2024-02-21T12:16:25;15.50;99.90
19037;DHT22;9651;49.138;8.900;2024-02-21T12:20:28;15.40;99.90
19037;DHT22;9651;49.138;8.900;2024-02-21T12:24:33;15.10;99.90
19037;DHT22;9651;49.138;8.900;2024-02-21T12:28:36;15.30;99.90
19037;DHT22;9651;49.138;8.900;2024-02-21T12:32:38;15.00;99.90
19037;DHT22;9651;49.138;8.900;2024-02-21T12:36:41;15.30;99.90
19037;DHT22;9651;49.138;8.900;2024-02-21T12:40:45;15.30;99.90
19037;DHT22;9651;49.138;8.900;2024-02-21T12:44:47;15.20;99.90
19037;DHT22;9651;49.138;8.900;2024-02-21T12:48:50;15.00;99.90
19037;DHT22;9651;49.138;8.900;2024-02-21T12:52:52;15.00;99.90
19037;DHT22;9651;49.138;8.900;2024-02-21T12:56:55;14.90;99.90
19037;DHT22;9651;49.138;8.900;2024-02-21T13:00:57;14.90;99.90
19037;DHT22;9651;49.138;8.900;2024-02-21T13:04:59;14.90;99.90
19037;DHT22;9651;49.138;8.900;2024-02-21T13:09:02;14.90;99.90
19037;DHT22;9651;49.138;8.900;2024-02-21T13:13:09;14.90;99.90
19037;DHT22;9651;49.138;8.900;2024-02-21T13:17:12;14.90;99.90
19037;DHT22;9651;49.138;8.900;2024-02-21T13:21:15;15.00;99.90
19037;DHT22;9651;49.138;8.900;2024-02-21T13:25:17;14.90;99.90
19037;DHT22;9651;49.138;8.900;2024-02-21T13:29:22;14.90;99.90
19037;DHT22;9651;49.138;8.900;2024-02-21T13:33:25;14.90;99.90
19037;DHT22;9651;49.138;8.900;2024-02-21T13:37:27;14.60;99.90
19037;DHT22;9651;49.138;8.900;2024-02-21T13:41:29;14.50;99.90
19037;DHT22;9651;49.138;8.900;2024-02-21T13:45:32;14.40;99.90
19037;DHT22;9651;49.138;8.900;2024-02-21T13:49:34;14.50;99.90
19037;DHT22;9651;49.138;8.900;2024-02-21T13:53:36;14.60;99.90
19037;DHT22;9651;49.138;8.900;2024-02-21T13:57:38;14.60;99.90
19037;DHT22;9651;49.138;8.900;2024-02-21T14:01:42;14.60;99.90
19037;DHT22;9651;49.138;8.900;2024-02-21T14:05:44;14.40;99.90
19037;DHT22;9651;49.138;8.900;2024-02-21T14:09:48;14.30;99.90
19037;DHT22;9651;49.138;8.900;2024-02-21T14:13:50;14.10;99.90
19037;DHT22;9651;49.138;8.900;2024-02-21T14:17:54;14.00;99.90
19037;DHT22;9651;49.138;8.900;2024-02-21T14:21:56;14.10;99.90
19037;DHT22;9651;49.138;8.900;2024-02-21T14:25:59;14.20;99.90
19037;DHT22;9651;49.138;8.900;2024-02-21T14:30:01;14.30;99.90
19037;DHT22;9651;49.138;8.900;2024-02-21T14:34:04;14.40;99.90
19037;DHT22;9651;49.138;8.900;2024-02-21T14:38:08;14.30;99.90
19037;DHT22;9651;49.138;8.900;2024-02-21T14:42:10;14.20;99.90
19037;DHT22;9651;49.138;8.900;2024-02-21T14:46:12;14.20;99.90
19037;DHT22;9651;49.138;8.900;2024-02-21T14:50:15;14.20;99.90
19037;DHT22;9651;49.138;8.900;2024-02-21T14:54:17;14.10;99.90
19037;DHT22;9651;49.138;8.900;2024-02-21T14:58:20;14.00;99.90
19037;DHT22;9651;49.138;8.900;2024-02-21T15:02:22;13.80;99.90
19037;DHT22;9651;49.138;8.900;2024-02-21T15:06:25;13.80;99.90
19037;DHT22;9651;49.138;8.900;2024-02-21T15:10:28;13.90;99.90
19037;DHT22;9651;49.138;8.900;2024-02-21T15:14:30;13.80;99.90
19037;DHT22;9651;49.138;8.900;2024-02-21T15:18:32;13.80;99.90
19037;DHT22;9651;49.138;8.900;2024-02-21T15:22:38;13.80;99.90
19037;DHT22;9651;49.138;8.900;2024-02-21T15:26:40;13.80;99.90
19037;DHT22;9651;49.138;8.900;2024-02-21T15:30:41;13.80;99.90
19037;DHT22;9651;49.138;8.900;2024-02-21T15:34:43;13.70;99.90
19037;DHT22;9651;49.138;8.900;2024-02-21T15:38:47;13.50;99.90
19037;DHT22;9651;49.138;8.900;2024-02-21T15:42:49;13.50;99.90
19037;DHT22;9651;49.138;8.900;2024-02-21T15:46:51;13.50;99.90
19037;DHT22;9651;49.138;8.900;2024-02-21T15:50:53;13.50;99.90
19037;DHT22;9651;49.138;8.900;2024-02-21T15:54:56;13.40;99.90
19037;DHT22;9651;49.138;8.900;2024-02-21T15:58:58;13.30;99.90
19037;DHT22;9651;49.138;8.900;2024-02-21T16:03:00;13.10;99.90
19037;DHT22;9651;49.138;8.900;2024-02-21T16:07:04;12.90;99.90
19037;DHT22;9651;49.138;8.900;2024-02-21T16:11:13;12.60;99.90
19037;DHT22;9651;49.138;8.900;2024-02-21T16:15:16;12.50;99.90
19037;DHT22;9651;49.138;8.900;2024-02-21T16:19:18;12.40;99.90
19037;DHT22;9651;49.138;8.900;2024-02-21T16:23:20;12.30;99.90
19037;DHT22;9651;49.138;8.900;2024-02-21T16:27:24;12.30;99.90
19037;DHT22;9651;49.138;8.900;2024-02-21T16:31:26;12.20;99.90
19037;DHT22;9651;49.138;8.900;2024-02-21T16:35:28;12.20;99.90
19037;DHT22;9651;49.138;8.900;2024-02-21T16:39:30;12.10;99.90
19037;DHT22;9651;49.138;8.900;2024-02-21T16:43:33;12.00;99.90
19037;DHT22;9651;49.138;8.900;2024-02-21T16:47:35;12.00;99.90
19037;DHT22;9651;49.138;8.900;2024-02-21T16:51:37;11.90;99.90
19037;DHT22;9651;49.138;8.900;2024-02-21T16:55:39;11.80;99.90
19037;DHT22;9651;49.138;8.900;2024-02-21T16:59:42;11.80;99.90
19037;DHT22;9651;49.138;8.900;2024-02-21T17:03:44;11.70;99.90
19037;DHT22;9651;49.138;8.900;2024-02-21T17:07:46;11.60;99.90
19037;DHT22;9651;49.138;8.900;2024-02-21T17:11:47;11.50;99.90
19037;DHT22;9651;49.138;8.900;2024-02-21T17:15:52;11.50;99.90
19037;DHT22;9651;49.138;8.900;2024-02-21T17:19:53;11.40;99.90
19037;DHT22;9651;49.138;8.900;2024-02-21T17:23:55;11.30;99.90
19037;DHT22;9651;49.138;8.900;2024-02-21T17:27:57;11.20;99.90
19037;DHT22;9651;49.138;8.900;2024-02-21T17:32:00;11.20;99.90
19037;DHT22;9651;49.138;8.900;2024-02-21T17:36:03;11.10;99.90
19037;DHT22;9651;49.138;8.900;2024-02-21T17:40:06;11.20;99.90
19037;DHT22;9651;49.138;8.900;2024-02-21T17:44:08;11.10;99.90
19037;DHT22;9651;49.138;8.900;2024-02-21T17:48:11;11.10;99.90
19037;DHT22;9651;49.138;8.900;2024-02-21T17:52:14;10.90;99.90
19037;DHT22;9651;49.138;8.900;2024-02-21T17:56:16;10.80;99.90
19037;DHT22;9651;49.138;8.900;2024-02-21T18:00:20;10.70;99.90
19037;DHT22;9651;49.138;8.900;2024-02-21T18:04:24;10.60;99.90
19037;DHT22;9651;49.138;8.900;2024-02-21T18:08:26;10.50;99.90
19037;DHT22;9651;49.138;8.900;2024-02-21T18:12:28;10.40;99.90
19037;DHT22;9651;49.138;8.900;2024-02-21T18:16:30;10.30;99.90
19037;DHT22;9651;49.138;8.900;2024-02-21T18:20:34;10.30;99.90
19037;DHT22;9651;49.138;8.900;2024-02-21T18:24:37;10.20;99.90
19037;DHT22;9651;49.138;8.900;2024-02-21T18:28:39;10.20;99.90
19037;DHT22;9651;49.138;8.900;2024-02-21T18:32:41;10.20;99.90
19037;DHT22;9651;49.138;8.900;2024-02-21T18:36:45;10.10;99.90
19037;DHT22;9651;49.138;8.900;2024-02-21T18:40:47;10.10;99.90
19037;DHT22;9651;49.138;8.900;2024-02-21T18:44:49;10.10;99.90
19037;DHT22;9651;49.138;8.900;2024-02-21T18:48:54;10.10;99.90
19037;DHT22;9651;49.138;8.900;2024-02-21T18:52:57;10.00;99.90
19037;DHT22;9651;49.138;8.900;2024-02-21T18:57:00;10.00;99.90
19037;DHT22;9651;49.138;8.900;2024-02-21T19:01:02;10.00;99.90
19037;DHT22;9651;49.138;8.900;2024-02-21T19:05:05;10.00;99.90
19037;DHT22;9651;49.138;8.900;2024-02-21T19:09:08;10.00;99.90
19037;DHT22;9651;49.138;8.900;2024-02-21T19:13:10;10.00;99.90
19037;DHT22;9651;49.138;8.900;2024-02-21T19:17:13;9.90;99.90
19037;DHT22;9651;49.138;8.900;2024-02-21T19:21:14;9.90;99.90
19037;DHT22;9651;49.138;8.900;2024-02-21T19:25:18;9.90;99.90
19037;DHT22;9651;49.138;8.900;2024-02-21T19:29:21;9.90;99.90
19037;DHT22;9651;49.138;8.900;2024-02-21T19:33:24;9.80;99.90
19037;DHT22;9651;49.138;8.900;2024-02-21T19:37:26;9.80;99.90
19037;DHT22;9651;49.138;8.900;2024-02-21T19:41:30;9.70;99.90
19037;DHT22;9651;49.138;8.900;2024-02-21T19:45:32;9.70;99.90
19037;DHT22;9651;49.138;8.900;2024-02-21T19:49:35;9.70;99.90
19037;DHT22;9651;49.138;8.900;2024-02-21T19:53:36;9.80;99.90
19037;DHT22;9651;49.138;8.900;2024-02-21T19:57:40;9.80;99.90
19037;DHT22;9651;49.138;8.900;2024-02-21T20:01:42;9.80;99.90
19037;DHT22;9651;49.138;8.900;2024-02-21T20:05:44;9.80;99.90
19037;DHT22;9651;49.138;8.900;2024-02-21T20:09:46;9.80;99.90
19037;DHT22;9651;49.138;8.900;2024-02-21T20:13:50;9.70;99.90
19037;DHT22;9651;49.138;8.900;2024-02-21T20:17:52;9.70;99.90
19037;DHT22;9651;49.138;8.900;2024-02-21T20:21:55;9.70;99.90
19037;DHT22;9651;49.138;8.900;2024-02-21T20:25:57;9.70;99.90
19037;DHT22;9651;49.138;8.900;2024-02-21T20:30:00;9.70;99.90
19037;DHT22;9651;49.138;8.900;2024-02-21T20:34:03;9.70;99.90
19037;DHT22;9651;49.138;8.900;2024-02-21T20:38:05;9.80;99.90
19037;DHT22;9651;49.138;8.900;2024-02-21T20:42:07;10.00;99.90
19037;DHT22;9651;49.138;8.900;2024-02-21T20:46:12;10.20;99.90
19037;DHT22;9651;49.138;8.900;2024-02-21T20:50:14;10.30;99.90
19037;DHT22;9651;49.138;8.900;2024-02-21T20:54:16;10.50;99.90
19037;DHT22;9651;49.138;8.900;2024-02-21T20:58:18;10.50;99.90
19037;DHT22;9651;49.138;8.900;2024-02-21T21:02:21;10.60;99.90
19037;DHT22;9651;49.138;8.900;2024-02-21T21:06:23;10.70;99.90
19037;DHT22;9651;49.138;8.900;2024-02-21T21:10:26;11.00;99.90
19037;DHT22;9651;49.138;8.900;2024-02-21T21:14:28;11.20;99.90
19037;DHT22;9651;49.138;8.900;2024-02-21T21:18:32;11.30;99.90
19037;DHT22;9651;49.138;8.900;2024-02-21T21:22:34;11.30;99.90
19037;DHT22;9651;49.138;8.900;2024-02-21T21:26:35;11.40;99.90
19037;DHT22;9651;49.138;8.900;2024-02-21T21:30:37;11.30;99.90
19037;DHT22;9651;49.138;8.900;2024-02-21T21:34:41;11.30;99.90
19037;DHT22;9651;49.138;8.900;2024-02-21T21:38:44;11.30;99.90
19037;DHT22;9651;49.138;8.900;2024-02-21T21:42:48;11.20;99.90
19037;DHT22;9651;49.138;8.900;2024-02-21T21:46:51;11.20;99.90
19037;DHT22;9651;49.138;8.900;2024-02-21T21:50:54;11.10;99.90
19037;DHT22;9651;49.138;8.900;2024-02-21T21:54:56;11.10;99.90
19037;DHT22;9651;49.138;8.900;2024-02-21T21:58:59;11.00;99.90
19037;DHT22;9651;49.138;8.900;2024-02-21T22:03:04;11.00;99.90
19037;DHT22;9651;49.138;8.900;2024-02-21T22:07:07;11.00;99.90
19037;DHT22;9651;49.138;8.900;2024-02-21T22:11:09;10.90;99.90
19037;DHT22;9651;49.138;8.900;2024-02-21T22:15:13;10.90;99.90
19037;DHT22;9651;49.138;8.900;2024-02-21T22:19:16;10.90;99.90
19037;DHT22;9651;49.138;8.900;2024-02-21T22:23:19;10.80;99.90
19037;DHT22;9651;49.138;8.900;2024-02-21T22:27:22;10.70;99.90
19037;DHT22;9651;49.138;8.900;2024-02-21T22:31:25;10.70;99.90
19037;DHT22;9651;49.138;8.900;2024-02-21T22:35:27;10.70;99.90
19037;DHT22;9651;49.138;8.900;2024-02-21T22:39:30;10.60;99.90
19037;DHT22;9651;49.138;8.900;2024-02-21T22:43:32;10.50;99.90
19037;DHT22;9651;49.138;8.900;2024-02-21T22:47:34;10.40;99.90
19037;DHT22;9651;49.138;8.900;2024-02-21T22:51:36;10.30;99.90
19037;DHT22;9651;49.138;8.900;2024-02-21T22:55:40;10.40;99.90
19037;DHT22;9651;49.138;8.900;2024-02-21T22:59:41;10.30;99.90
19037;DHT22;9651;49.138;8.900;2024-02-21T23:03:43;10.30;99.90
19037;DHT22;9651;49.138;8.900;2024-02-21T23:07:45;10.20;99.90
19037;DHT22;9651;49.138;8.900;2024-02-21T23:11:51;10.20;99.90
19037;DHT22;9651;49.138;8.900;2024-02-21T23:15:54;10.20;99.90
19037;DHT22;9651;49.138;8.900;2024-02-21T23:19:55;10.10;99.90
19037;DHT22;9651;49.138;8.900;2024-02-21T23:23:57;10.10;99.90
19037;DHT22;9651;49.138;8.900;2024-02-21T23:28:00;10.10;99.90
19037;DHT22;9651;49.138;8.900;2024-02-21T23:32:03;10.10;99.90
19037;DHT22;9651;49.138;8.900;2024-02-21T23:36:06;10.00;99.90
19037;DHT22;9651;49.138;8.900;2024-02-21T23:40:10;10.00;99.90
19037;DHT22;9651;49.138;8.900;2024-02-21T23:44:13;10.00;99.90
19037;DHT22;9651;49.138;8.900;2024-02-21T23:48:16;9.90;99.90
19037;DHT22;9651;49.138;8.900;2024-02-21T23:52:18;9.90;99.90
19037;DHT22;9651;49.138;8.900;2024-02-21T23:56:20;9.90;99.90
